sensor_id;sensor_type;location;lat;lon;timestamp;P1;durP1;ratioP1;P2;durP2;ratioP2
67352;SDS011;54238;52.278;21.056;2023-03-05T00:00:14;10.00;;;3.30;;
67352;SDS011;54238;52.278;21.056;2023-03-05T00:03:07;7.00;;;3.10;;
67352;SDS011;54238;52.278;21.056;2023-03-05T00:05:39;8.50;;;2.70;;
67352;SDS011;54238;52.278;21.056;2023-03-05T00:08:11;9.30;;;3.60;;
67352;SDS011;54238;52.278;21.056;2023-03-05T00:10:44;10.00;;;3.80;;
67352;SDS011;54238;52.278;21.056;2023-03-05T00:13:14;11.80;;;3.10;;
67352;SDS011;54238;52.278;21.056;2023-03-05T00:15:41;13.10;;;3.70;;
67352;SDS011;54238;52.278;21.056;2023-03-05T00:18:08;8.20;;;3.10;;
67352;SDS011;54238;52.278;21.056;2023-03-05T00:20:36;9.20;;;3.30;;
67352;SDS011;54238;52.278;21.056;2023-03-05T00:23:06;11.60;;;3.10;;
67352;SDS011;54238;52.278;21.056;2023-03-05T00:25:36;7.50;;;3.00;;
67352;SDS011;54238;52.278;21.056;2023-03-05T00:28:07;11.70;;;3.70;;
67352;SDS011;54238;52.278;21.056;2023-03-05T00:30:37;6.70;;;2.20;;
67352;SDS011;54238;52.278;21.056;2023-03-05T00:33:11;11.90;;;4.00;;
67352;SDS011;54238;52.278;21.056;2023-03-05T00:35:45;9.10;;;3.20;;
67352;SDS011;54238;52.278;21.056;2023-03-05T00:38:12;7.00;;;2.80;;
67352;SDS011;54238;52.278;21.056;2023-03-05T00:40:40;10.50;;;3.90;;
67352;SDS011;54238;52.278;21.056;2023-03-05T00:43:10;13.30;;;4.00;;
67352;SDS011;54238;52.278;21.056;2023-03-05T00:45:41;11.60;;;3.90;;
67352;SDS011;54238;52.278;21.056;2023-03-05T00:48:11;12.40;;;3.60;;
67352;SDS011;54238;52.278;21.056;2023-03-05T00:50:38;9.80;;;3.30;;
67352;SDS011;54238;52.278;21.056;2023-03-05T00:53:12;13.30;;;3.80;;
67352;SDS011;54238;52.278;21.056;2023-03-05T00:55:39;16.60;;;5.30;;
67352;SDS011;54238;52.278;21.056;2023-03-05T00:58:13;12.60;;;4.40;;
67352;SDS011;54238;52.278;21.056;2023-03-05T01:00:44;17.90;;;5.80;;
67352;SDS011;54238;52.278;21.056;2023-03-05T01:03:12;18.60;;;5.80;;
67352;SDS011;54238;52.278;21.056;2023-03-05T01:05:40;8.90;;;3.70;;
67352;SDS011;54238;52.278;21.056;2023-03-05T01:08:10;19.20;;;6.00;;
67352;SDS011;54238;52.278;21.056;2023-03-05T01:10:37;14.40;;;4.90;;
67352;SDS011;54238;52.278;21.056;2023-03-05T01:13:09;20.00;;;6.70;;
67352;SDS011;54238;52.278;21.056;2023-03-05T01:15:38;17.50;;;5.50;;
67352;SDS011;54238;52.278;21.056;2023-03-05T01:18:05;15.10;;;4.80;;
67352;SDS011;54238;52.278;21.056;2023-03-05T01:20:35;11.20;;;4.10;;
67352;SDS011;54238;52.278;21.056;2023-03-05T01:23:02;9.30;;;4.00;;
67352;SDS011;54238;52.278;21.056;2023-03-05T01:25:31;13.10;;;4.30;;
67352;SDS011;54238;52.278;21.056;2023-03-05T01:27:59;15.20;;;5.90;;
67352;SDS011;54238;52.278;21.056;2023-03-05T01:30:26;12.70;;;4.20;;
67352;SDS011;54238;52.278;21.056;2023-03-05T01:33:00;9.70;;;3.20;;
67352;SDS011;54238;52.278;21.056;2023-03-05T01:35:31;15.60;;;4.80;;
67352;SDS011;54238;52.278;21.056;2023-03-05T01:38:01;13.20;;;5.30;;
67352;SDS011;54238;52.278;21.056;2023-03-05T01:40:33;14.00;;;4.90;;
67352;SDS011;54238;52.278;21.056;2023-03-05T01:45:37;10.60;;;4.40;;
67352;SDS011;54238;52.278;21.056;2023-03-05T01:48:27;18.00;;;5.90;;
67352;SDS011;54238;52.278;21.056;2023-03-05T01:50:54;23.60;;;6.70;;
67352;SDS011;54238;52.278;21.056;2023-03-05T01:53:27;20.80;;;6.50;;
67352;SDS011;54238;52.278;21.056;2023-03-05T01:55:57;18.90;;;6.70;;
67352;SDS011;54238;52.278;21.056;2023-03-05T01:58:25;16.90;;;6.90;;
67352;SDS011;54238;52.278;21.056;2023-03-05T02:00:53;11.40;;;3.60;;
67352;SDS011;54238;52.278;21.056;2023-03-05T02:03:25;21.50;;;6.90;;
67352;SDS011;54238;52.278;21.056;2023-03-05T02:05:54;19.80;;;7.10;;
67352;SDS011;54238;52.278;21.056;2023-03-05T02:08:21;19.10;;;6.80;;
67352;SDS011;54238;52.278;21.056;2023-03-05T02:10:53;23.40;;;6.80;;
67352;SDS011;54238;52.278;21.056;2023-03-05T02:13:30;17.50;;;6.20;;
67352;SDS011;54238;52.278;21.056;2023-03-05T02:16:00;31.00;;;7.70;;
67352;SDS011;54238;52.278;21.056;2023-03-05T02:18:28;17.70;;;6.40;;
67352;SDS011;54238;52.278;21.056;2023-03-05T02:23:30;17.50;;;6.90;;
67352;SDS011;54238;52.278;21.056;2023-03-05T02:26:07;14.20;;;5.00;;
67352;SDS011;54238;52.278;21.056;2023-03-05T02:28:39;16.10;;;6.10;;
67352;SDS011;54238;52.278;21.056;2023-03-05T02:33:43;19.20;;;6.90;;
67352;SDS011;54238;52.278;21.056;2023-03-05T02:36:11;17.20;;;6.70;;
67352;SDS011;54238;52.278;21.056;2023-03-05T02:38:42;23.00;;;7.50;;
67352;SDS011;54238;52.278;21.056;2023-03-05T02:41:15;14.80;;;5.70;;
67352;SDS011;54238;52.278;21.056;2023-03-05T02:43:42;11.70;;;4.60;;
67352;SDS011;54238;52.278;21.056;2023-03-05T02:46:12;13.80;;;4.90;;
67352;SDS011;54238;52.278;21.056;2023-03-05T02:48:39;17.50;;;5.90;;
67352;SDS011;54238;52.278;21.056;2023-03-05T02:51:06;17.60;;;6.40;;
67352;SDS011;54238;52.278;21.056;2023-03-05T02:53:36;16.60;;;6.70;;
67352;SDS011;54238;52.278;21.056;2023-03-05T02:56:07;15.40;;;5.00;;
67352;SDS011;54238;52.278;21.056;2023-03-05T02:58:38;16.90;;;5.70;;
67352;SDS011;54238;52.278;21.056;2023-03-05T03:01:08;14.90;;;6.00;;
67352;SDS011;54238;52.278;21.056;2023-03-05T03:03:38;19.20;;;7.00;;
67352;SDS011;54238;52.278;21.056;2023-03-05T03:06:05;13.90;;;5.00;;
67352;SDS011;54238;52.278;21.056;2023-03-05T03:08:33;18.70;;;6.80;;
67352;SDS011;54238;52.278;21.056;2023-03-05T03:11:07;14.00;;;5.50;;
67352;SDS011;54238;52.278;21.056;2023-03-05T03:13:39;15.50;;;4.80;;
67352;SDS011;54238;52.278;21.056;2023-03-05T03:16:12;14.20;;;4.90;;
67352;SDS011;54238;52.278;21.056;2023-03-05T03:18:42;17.00;;;6.20;;
67352;SDS011;54238;52.278;21.056;2023-03-05T03:21:23;16.00;;;6.40;;
67352;SDS011;54238;52.278;21.056;2023-03-05T03:23:53;22.00;;;6.90;;
67352;SDS011;54238;52.278;21.056;2023-03-05T03:26:23;17.50;;;5.90;;
67352;SDS011;54238;52.278;21.056;2023-03-05T03:28:54;18.10;;;5.00;;
67352;SDS011;54238;52.278;21.056;2023-03-05T03:31:24;13.70;;;5.40;;
67352;SDS011;54238;52.278;21.056;2023-03-05T03:33:51;15.30;;;4.90;;
67352;SDS011;54238;52.278;21.056;2023-03-05T03:36:20;19.10;;;6.30;;
67352;SDS011;54238;52.278;21.056;2023-03-05T03:38:52;9.40;;;4.50;;
67352;SDS011;54238;52.278;21.056;2023-03-05T03:43:49;15.10;;;6.10;;
67352;SDS011;54238;52.278;21.056;2023-03-05T03:46:16;16.70;;;5.40;;
67352;SDS011;54238;52.278;21.056;2023-03-05T03:48:48;19.40;;;6.80;;
67352;SDS011;54238;52.278;21.056;2023-03-05T03:51:16;12.10;;;5.10;;
67352;SDS011;54238;52.278;21.056;2023-03-05T03:53:46;15.10;;;5.50;;
67352;SDS011;54238;52.278;21.056;2023-03-05T03:56:18;14.20;;;5.20;;
67352;SDS011;54238;52.278;21.056;2023-03-05T03:58:51;25.30;;;7.00;;
67352;SDS011;54238;52.278;21.056;2023-03-05T04:01:22;19.90;;;5.40;;
67352;SDS011;54238;52.278;21.056;2023-03-05T04:03:53;15.30;;;5.50;;
67352;SDS011;54238;52.278;21.056;2023-03-05T04:06:20;16.40;;;5.00;;
67352;SDS011;54238;52.278;21.056;2023-03-05T04:08:50;27.30;;;7.10;;
67352;SDS011;54238;52.278;21.056;2023-03-05T04:11:19;22.60;;;5.70;;
67352;SDS011;54238;52.278;21.056;2023-03-05T04:13:50;15.90;;;5.90;;
67352;SDS011;54238;52.278;21.056;2023-03-05T04:16:20;13.80;;;6.20;;
67352;SDS011;54238;52.278;21.056;2023-03-05T04:18:54;17.00;;;5.40;;
67352;SDS011;54238;52.278;21.056;2023-03-05T04:21:26;19.40;;;6.60;;
67352;SDS011;54238;52.278;21.056;2023-03-05T04:23:58;20.60;;;5.90;;
67352;SDS011;54238;52.278;21.056;2023-03-05T04:26:30;17.90;;;5.40;;
67352;SDS011;54238;52.278;21.056;2023-03-05T04:28:59;13.60;;;5.30;;
67352;SDS011;54238;52.278;21.056;2023-03-05T04:31:26;13.70;;;5.00;;
67352;SDS011;54238;52.278;21.056;2023-03-05T04:33:56;13.80;;;4.30;;
67352;SDS011;54238;52.278;21.056;2023-03-05T04:36:28;21.30;;;6.70;;
67352;SDS011;54238;52.278;21.056;2023-03-05T04:38:57;15.30;;;5.70;;
67352;SDS011;54238;52.278;21.056;2023-03-05T04:41:28;12.20;;;4.90;;
67352;SDS011;54238;52.278;21.056;2023-03-05T04:43:57;11.80;;;5.10;;
67352;SDS011;54238;52.278;21.056;2023-03-05T04:46:29;22.00;;;6.60;;
67352;SDS011;54238;52.278;21.056;2023-03-05T04:48:59;13.20;;;5.10;;
67352;SDS011;54238;52.278;21.056;2023-03-05T04:51:28;15.50;;;5.30;;
67352;SDS011;54238;52.278;21.056;2023-03-05T04:53:56;16.40;;;5.00;;
67352;SDS011;54238;52.278;21.056;2023-03-05T04:56:23;13.80;;;4.80;;
67352;SDS011;54238;52.278;21.056;2023-03-05T04:58:52;14.70;;;4.50;;
67352;SDS011;54238;52.278;21.056;2023-03-05T05:01:20;11.90;;;4.60;;
67352;SDS011;54238;52.278;21.056;2023-03-05T05:03:49;15.50;;;6.10;;
67352;SDS011;54238;52.278;21.056;2023-03-05T05:06:22;11.10;;;4.30;;
67352;SDS011;54238;52.278;21.056;2023-03-05T05:08:52;12.20;;;4.00;;
67352;SDS011;54238;52.278;21.056;2023-03-05T05:11:23;12.00;;;4.20;;
67352;SDS011;54238;52.278;21.056;2023-03-05T05:13:50;11.20;;;3.80;;
67352;SDS011;54238;52.278;21.056;2023-03-05T05:16:19;13.90;;;5.00;;
67352;SDS011;54238;52.278;21.056;2023-03-05T05:18:49;15.90;;;5.50;;
67352;SDS011;54238;52.278;21.056;2023-03-05T05:21:19;8.50;;;3.40;;
67352;SDS011;54238;52.278;21.056;2023-03-05T05:23:52;12.30;;;4.30;;
67352;SDS011;54238;52.278;21.056;2023-03-05T05:26:22;14.40;;;5.40;;
67352;SDS011;54238;52.278;21.056;2023-03-05T05:28:53;14.80;;;4.10;;
67352;SDS011;54238;52.278;21.056;2023-03-05T05:31:27;10.30;;;3.30;;
67352;SDS011;54238;52.278;21.056;2023-03-05T05:33:56;11.20;;;4.40;;
67352;SDS011;54238;52.278;21.056;2023-03-05T05:36:26;9.90;;;3.50;;
67352;SDS011;54238;52.278;21.056;2023-03-05T05:39:00;17.60;;;5.00;;
67352;SDS011;54238;52.278;21.056;2023-03-05T05:41:30;10.90;;;4.50;;
67352;SDS011;54238;52.278;21.056;2023-03-05T05:44:02;6.00;;;2.80;;
67352;SDS011;54238;52.278;21.056;2023-03-05T05:46:32;13.50;;;3.90;;
67352;SDS011;54238;52.278;21.056;2023-03-05T05:48:59;13.70;;;4.00;;
67352;SDS011;54238;52.278;21.056;2023-03-05T05:51:26;9.90;;;4.10;;
67352;SDS011;54238;52.278;21.056;2023-03-05T05:53:53;8.90;;;4.00;;
67352;SDS011;54238;52.278;21.056;2023-03-05T05:56:21;8.90;;;3.20;;
67352;SDS011;54238;52.278;21.056;2023-03-05T05:58:48;15.60;;;4.30;;
67352;SDS011;54238;52.278;21.056;2023-03-05T06:03:47;11.60;;;4.50;;
67352;SDS011;54238;52.278;21.056;2023-03-05T06:06:16;10.60;;;4.60;;
67352;SDS011;54238;52.278;21.056;2023-03-05T06:08:46;10.90;;;4.30;;
67352;SDS011;54238;52.278;21.056;2023-03-05T06:11:17;10.80;;;4.40;;
67352;SDS011;54238;52.278;21.056;2023-03-05T06:13:51;10.90;;;5.50;;
67352;SDS011;54238;52.278;21.056;2023-03-05T06:16:21;7.70;;;3.60;;
67352;SDS011;54238;52.278;21.056;2023-03-05T06:18:51;8.90;;;3.40;;
67352;SDS011;54238;52.278;21.056;2023-03-05T06:21:20;7.20;;;2.70;;
67352;SDS011;54238;52.278;21.056;2023-03-05T06:23:53;11.70;;;3.50;;
67352;SDS011;54238;52.278;21.056;2023-03-05T06:26:24;8.60;;;3.50;;
67352;SDS011;54238;52.278;21.056;2023-03-05T06:28:55;6.60;;;2.80;;
67352;SDS011;54238;52.278;21.056;2023-03-05T06:31:27;15.60;;;4.40;;
67352;SDS011;54238;52.278;21.056;2023-03-05T06:33:57;12.10;;;3.90;;
67352;SDS011;54238;52.278;21.056;2023-03-05T06:36:29;10.10;;;4.00;;
67352;SDS011;54238;52.278;21.056;2023-03-05T06:39:02;14.90;;;4.50;;
67352;SDS011;54238;52.278;21.056;2023-03-05T06:41:32;8.90;;;3.90;;
67352;SDS011;54238;52.278;21.056;2023-03-05T06:44:00;14.30;;;3.60;;
67352;SDS011;54238;52.278;21.056;2023-03-05T06:46:33;13.00;;;4.10;;
67352;SDS011;54238;52.278;21.056;2023-03-05T06:49:09;9.40;;;3.60;;
67352;SDS011;54238;52.278;21.056;2023-03-05T06:54:11;7.20;;;2.60;;
67352;SDS011;54238;52.278;21.056;2023-03-05T06:56:46;15.80;;;4.50;;
67352;SDS011;54238;52.278;21.056;2023-03-05T06:59:16;11.50;;;3.60;;
67352;SDS011;54238;52.278;21.056;2023-03-05T07:01:46;13.10;;;3.90;;
67352;SDS011;54238;52.278;21.056;2023-03-05T07:04:16;10.90;;;3.60;;
67352;SDS011;54238;52.278;21.056;2023-03-05T07:06:46;7.90;;;3.40;;
67352;SDS011;54238;52.278;21.056;2023-03-05T07:09:18;10.60;;;3.70;;
67352;SDS011;54238;52.278;21.056;2023-03-05T07:11:47;11.70;;;3.30;;
67352;SDS011;54238;52.278;21.056;2023-03-05T07:14:17;11.40;;;4.00;;
67352;SDS011;54238;52.278;21.056;2023-03-05T07:16:44;9.90;;;3.40;;
67352;SDS011;54238;52.278;21.056;2023-03-05T07:19:16;15.00;;;3.20;;
67352;SDS011;54238;52.278;21.056;2023-03-05T07:21:43;13.80;;;4.30;;
67352;SDS011;54238;52.278;21.056;2023-03-05T07:24:13;9.70;;;3.80;;
67352;SDS011;54238;52.278;21.056;2023-03-05T07:26:44;11.20;;;3.70;;
67352;SDS011;54238;52.278;21.056;2023-03-05T07:29:12;11.60;;;4.30;;
67352;SDS011;54238;52.278;21.056;2023-03-05T07:31:41;10.30;;;4.40;;
67352;SDS011;54238;52.278;21.056;2023-03-05T07:34:11;11.70;;;4.90;;
67352;SDS011;54238;52.278;21.056;2023-03-05T07:36:41;12.10;;;4.10;;
67352;SDS011;54238;52.278;21.056;2023-03-05T07:39:11;16.60;;;4.60;;
67352;SDS011;54238;52.278;21.056;2023-03-05T07:41:41;14.50;;;4.60;;
67352;SDS011;54238;52.278;21.056;2023-03-05T07:44:16;10.80;;;4.20;;
67352;SDS011;54238;52.278;21.056;2023-03-05T07:46:43;12.80;;;4.70;;
67352;SDS011;54238;52.278;21.056;2023-03-05T07:49:13;6.60;;;3.50;;
67352;SDS011;54238;52.278;21.056;2023-03-05T07:51:45;8.10;;;3.70;;
67352;SDS011;54238;52.278;21.056;2023-03-05T07:54:12;8.30;;;3.40;;
67352;SDS011;54238;52.278;21.056;2023-03-05T07:56:42;9.80;;;3.80;;
67352;SDS011;54238;52.278;21.056;2023-03-05T07:59:11;12.10;;;4.70;;
67352;SDS011;54238;52.278;21.056;2023-03-05T08:01:43;9.10;;;4.30;;
67352;SDS011;54238;52.278;21.056;2023-03-05T08:04:11;11.30;;;5.00;;
67352;SDS011;54238;52.278;21.056;2023-03-05T08:06:40;8.80;;;4.60;;
67352;SDS011;54238;52.278;21.056;2023-03-05T08:09:08;8.00;;;3.50;;
67352;SDS011;54238;52.278;21.056;2023-03-05T08:11:39;12.70;;;4.80;;
67352;SDS011;54238;52.278;21.056;2023-03-05T08:14:06;13.80;;;4.80;;
67352;SDS011;54238;52.278;21.056;2023-03-05T08:16:38;17.40;;;5.70;;
67352;SDS011;54238;52.278;21.056;2023-03-05T08:19:09;10.70;;;4.00;;
67352;SDS011;54238;52.278;21.056;2023-03-05T08:21:36;12.30;;;4.50;;
67352;SDS011;54238;52.278;21.056;2023-03-05T08:24:06;11.00;;;4.80;;
67352;SDS011;54238;52.278;21.056;2023-03-05T08:26:40;12.40;;;4.90;;
67352;SDS011;54238;52.278;21.056;2023-03-05T08:29:12;13.90;;;4.50;;
67352;SDS011;54238;52.278;21.056;2023-03-05T08:31:44;14.60;;;5.70;;
67352;SDS011;54238;52.278;21.056;2023-03-05T08:34:12;10.80;;;4.30;;
67352;SDS011;54238;52.278;21.056;2023-03-05T08:36:42;5.20;;;2.80;;
67352;SDS011;54238;52.278;21.056;2023-03-05T08:39:11;13.20;;;5.80;;
67352;SDS011;54238;52.278;21.056;2023-03-05T08:41:41;14.70;;;5.60;;
67352;SDS011;54238;52.278;21.056;2023-03-05T08:44:10;16.20;;;5.70;;
67352;SDS011;54238;52.278;21.056;2023-03-05T08:46:42;13.10;;;5.20;;
67352;SDS011;54238;52.278;21.056;2023-03-05T08:49:12;17.60;;;6.70;;
67352;SDS011;54238;52.278;21.056;2023-03-05T08:51:39;13.00;;;6.30;;
67352;SDS011;54238;52.278;21.056;2023-03-05T08:54:08;13.90;;;5.70;;
67352;SDS011;54238;52.278;21.056;2023-03-05T08:56:36;19.30;;;7.10;;
67352;SDS011;54238;52.278;21.056;2023-03-05T08:59:05;13.80;;;6.20;;
67352;SDS011;54238;52.278;21.056;2023-03-05T09:01:38;12.80;;;5.60;;
67352;SDS011;54238;52.278;21.056;2023-03-05T09:04:08;13.20;;;6.10;;
67352;SDS011;54238;52.278;21.056;2023-03-05T09:06:35;16.00;;;7.30;;
67352;SDS011;54238;52.278;21.056;2023-03-05T09:09:07;10.50;;;5.60;;
67352;SDS011;54238;52.278;21.056;2023-03-05T09:11:35;18.80;;;7.50;;
67352;SDS011;54238;52.278;21.056;2023-03-05T09:14:29;17.00;;;7.20;;
67352;SDS011;54238;52.278;21.056;2023-03-05T09:17:01;18.80;;;7.80;;
67352;SDS011;54238;52.278;21.056;2023-03-05T09:19:33;20.80;;;7.60;;
67352;SDS011;54238;52.278;21.056;2023-03-05T09:22:03;21.80;;;8.10;;
67352;SDS011;54238;52.278;21.056;2023-03-05T09:24:32;17.20;;;7.10;;
67352;SDS011;54238;52.278;21.056;2023-03-05T09:27:07;21.70;;;7.50;;
67352;SDS011;54238;52.278;21.056;2023-03-05T09:29:38;19.60;;;7.70;;
67352;SDS011;54238;52.278;21.056;2023-03-05T09:32:10;19.30;;;7.60;;
67352;SDS011;54238;52.278;21.056;2023-03-05T09:34:37;20.80;;;8.20;;
67352;SDS011;54238;52.278;21.056;2023-03-05T09:37:07;16.40;;;7.60;;
67352;SDS011;54238;52.278;21.056;2023-03-05T09:39:35;17.90;;;7.70;;
67352;SDS011;54238;52.278;21.056;2023-03-05T09:42:20;17.00;;;6.30;;
67352;SDS011;54238;52.278;21.056;2023-03-05T09:50:44;21.90;;;7.70;;
67352;SDS011;54238;52.278;21.056;2023-03-05T09:53:42;20.10;;;7.40;;
67352;SDS011;54238;52.278;21.056;2023-03-05T09:56:20;14.90;;;7.90;;
67352;SDS011;54238;52.278;21.056;2023-03-05T09:58:58;16.40;;;6.50;;
67352;SDS011;54238;52.278;21.056;2023-03-05T10:01:39;16.30;;;5.50;;
67352;SDS011;54238;52.278;21.056;2023-03-05T10:07:33;22.20;;;6.90;;
67352;SDS011;54238;52.278;21.056;2023-03-05T10:10:09;14.40;;;6.40;;
67352;SDS011;54238;52.278;21.056;2023-03-05T10:15:21;16.70;;;6.60;;
67352;SDS011;54238;52.278;21.056;2023-03-05T10:21:14;16.90;;;5.90;;
67352;SDS011;54238;52.278;21.056;2023-03-05T10:24:00;14.50;;;5.20;;
67352;SDS011;54238;52.278;21.056;2023-03-05T10:40:50;16.80;;;8.00;;
67352;SDS011;54238;52.278;21.056;2023-03-05T10:43:22;20.20;;;9.80;;
67352;SDS011;54238;52.278;21.056;2023-03-05T10:46:01;17.00;;;7.50;;
67352;SDS011;54238;52.278;21.056;2023-03-05T10:48:44;18.60;;;7.10;;
67352;SDS011;54238;52.278;21.056;2023-03-05T10:54:28;23.30;;;8.80;;
67352;SDS011;54238;52.278;21.056;2023-03-05T10:57:15;24.70;;;10.80;;
67352;SDS011;54238;52.278;21.056;2023-03-05T10:59:52;19.80;;;8.80;;
67352;SDS011;54238;52.278;21.056;2023-03-05T11:08:24;22.20;;;8.00;;
67352;SDS011;54238;52.278;21.056;2023-03-05T11:14:00;20.10;;;9.30;;
67352;SDS011;54238;52.278;21.056;2023-03-05T11:16:33;21.00;;;8.40;;
67352;SDS011;54238;52.278;21.056;2023-03-05T11:21:41;14.30;;;7.20;;
67352;SDS011;54238;52.278;21.056;2023-03-05T11:24:13;18.80;;;7.00;;
67352;SDS011;54238;52.278;21.056;2023-03-05T11:32:14;19.70;;;6.60;;
67352;SDS011;54238;52.278;21.056;2023-03-05T11:34:55;14.30;;;5.60;;
67352;SDS011;54238;52.278;21.056;2023-03-05T11:37:27;8.90;;;4.00;;
67352;SDS011;54238;52.278;21.056;2023-03-05T11:40:17;9.50;;;4.20;;
67352;SDS011;54238;52.278;21.056;2023-03-05T11:42:56;7.90;;;3.30;;
67352;SDS011;54238;52.278;21.056;2023-03-05T11:45:31;9.20;;;3.90;;
67352;SDS011;54238;52.278;21.056;2023-03-05T11:48:12;15.10;;;3.70;;
67352;SDS011;54238;52.278;21.056;2023-03-05T11:50:48;9.30;;;3.50;;
67352;SDS011;54238;52.278;21.056;2023-03-05T11:53:26;11.30;;;3.40;;
67352;SDS011;54238;52.278;21.056;2023-03-05T11:56:02;8.50;;;3.90;;
67352;SDS011;54238;52.278;21.056;2023-03-05T11:58:50;6.90;;;3.10;;
67352;SDS011;54238;52.278;21.056;2023-03-05T12:01:28;10.20;;;4.00;;
67352;SDS011;54238;52.278;21.056;2023-03-05T12:04:01;7.40;;;3.00;;
67352;SDS011;54238;52.278;21.056;2023-03-05T12:06:53;9.10;;;3.80;;
67352;SDS011;54238;52.278;21.056;2023-03-05T12:09:36;12.20;;;5.30;;
67352;SDS011;54238;52.278;21.056;2023-03-05T12:12:34;10.60;;;4.00;;
67352;SDS011;54238;52.278;21.056;2023-03-05T12:17:53;11.80;;;5.30;;
67352;SDS011;54238;52.278;21.056;2023-03-05T12:20:41;10.90;;;5.90;;
67352;SDS011;54238;52.278;21.056;2023-03-05T12:23:14;14.50;;;5.40;;
67352;SDS011;54238;52.278;21.056;2023-03-05T12:25:47;10.20;;;5.70;;
67352;SDS011;54238;52.278;21.056;2023-03-05T12:33:41;13.50;;;6.60;;
67352;SDS011;54238;52.278;21.056;2023-03-05T12:38:52;11.20;;;4.80;;
67352;SDS011;54238;52.278;21.056;2023-03-05T12:51:50;10.40;;;4.30;;
67352;SDS011;54238;52.278;21.056;2023-03-05T12:54:34;17.10;;;5.10;;
67352;SDS011;54238;52.278;21.056;2023-03-05T12:57:17;9.00;;;3.50;;
67352;SDS011;54238;52.278;21.056;2023-03-05T13:02:40;11.70;;;4.10;;
67352;SDS011;54238;52.278;21.056;2023-03-05T13:07:50;14.20;;;5.50;;
67352;SDS011;54238;52.278;21.056;2023-03-05T13:10:26;12.50;;;5.10;;
67352;SDS011;54238;52.278;21.056;2023-03-05T13:12:56;9.80;;;4.40;;
67352;SDS011;54238;52.278;21.056;2023-03-05T13:15:26;9.40;;;4.50;;
67352;SDS011;54238;52.278;21.056;2023-03-05T13:17:58;12.40;;;5.50;;
67352;SDS011;54238;52.278;21.056;2023-03-05T13:20:34;13.90;;;4.80;;
67352;SDS011;54238;52.278;21.056;2023-03-05T13:23:23;15.40;;;5.60;;
67352;SDS011;54238;52.278;21.056;2023-03-05T13:26:18;12.10;;;4.80;;
67352;SDS011;54238;52.278;21.056;2023-03-05T13:29:10;7.20;;;3.80;;
67352;SDS011;54238;52.278;21.056;2023-03-05T13:31:59;13.60;;;4.40;;
67352;SDS011;54238;52.278;21.056;2023-03-05T13:34:36;8.10;;;4.10;;
67352;SDS011;54238;52.278;21.056;2023-03-05T13:37:19;9.70;;;3.50;;
67352;SDS011;54238;52.278;21.056;2023-03-05T13:42:31;13.20;;;4.30;;
67352;SDS011;54238;52.278;21.056;2023-03-05T13:48:02;11.70;;;5.00;;
67352;SDS011;54238;52.278;21.056;2023-03-05T13:50:34;9.80;;;4.20;;
67352;SDS011;54238;52.278;21.056;2023-03-05T13:53:27;11.40;;;4.60;;
67352;SDS011;54238;52.278;21.056;2023-03-05T13:55:59;12.00;;;3.90;;
67352;SDS011;54238;52.278;21.056;2023-03-05T14:01:30;13.70;;;4.30;;
67352;SDS011;54238;52.278;21.056;2023-03-05T14:04:23;8.90;;;4.20;;
67352;SDS011;54238;52.278;21.056;2023-03-05T14:13:25;6.00;;;3.00;;
67352;SDS011;54238;52.278;21.056;2023-03-05T14:16:14;7.30;;;2.90;;
67352;SDS011;54238;52.278;21.056;2023-03-05T14:18:58;7.20;;;3.20;;
67352;SDS011;54238;52.278;21.056;2023-03-05T14:21:42;7.00;;;3.50;;
67352;SDS011;54238;52.278;21.056;2023-03-05T14:24:23;12.90;;;4.80;;
67352;SDS011;54238;52.278;21.056;2023-03-05T14:26:59;28.70;;;7.60;;
67352;SDS011;54238;52.278;21.056;2023-03-05T14:29:37;21.20;;;7.70;;
67352;SDS011;54238;52.278;21.056;2023-03-05T14:32:34;14.40;;;5.80;;
67352;SDS011;54238;52.278;21.056;2023-03-05T14:35:04;14.50;;;5.50;;
67352;SDS011;54238;52.278;21.056;2023-03-05T14:37:36;9.20;;;4.50;;
67352;SDS011;54238;52.278;21.056;2023-03-05T14:42:52;12.50;;;5.50;;
67352;SDS011;54238;52.278;21.056;2023-03-05T14:45:40;7.40;;;4.30;;
67352;SDS011;54238;52.278;21.056;2023-03-05T14:48:13;10.60;;;4.70;;
67352;SDS011;54238;52.278;21.056;2023-03-05T14:50:46;9.90;;;4.50;;
67352;SDS011;54238;52.278;21.056;2023-03-05T14:53:23;11.50;;;4.90;;
67352;SDS011;54238;52.278;21.056;2023-03-05T14:55:54;12.80;;;4.20;;
67352;SDS011;54238;52.278;21.056;2023-03-05T14:58:28;6.90;;;4.20;;
67352;SDS011;54238;52.278;21.056;2023-03-05T15:00:58;10.90;;;5.30;;
67352;SDS011;54238;52.278;21.056;2023-03-05T15:03:26;14.80;;;4.60;;
67352;SDS011;54238;52.278;21.056;2023-03-05T15:05:57;8.90;;;3.50;;
67352;SDS011;54238;52.278;21.056;2023-03-05T15:08:29;7.60;;;3.60;;
67352;SDS011;54238;52.278;21.056;2023-03-05T15:11:00;9.30;;;4.00;;
67352;SDS011;54238;52.278;21.056;2023-03-05T15:13:32;11.30;;;5.00;;
67352;SDS011;54238;52.278;21.056;2023-03-05T15:16:04;12.20;;;6.00;;
67352;SDS011;54238;52.278;21.056;2023-03-05T15:18:42;15.30;;;5.80;;
67352;SDS011;54238;52.278;21.056;2023-03-05T15:21:12;12.90;;;6.00;;
67352;SDS011;54238;52.278;21.056;2023-03-05T15:23:42;11.50;;;5.30;;
67352;SDS011;54238;52.278;21.056;2023-03-05T15:26:13;15.10;;;5.50;;
67352;SDS011;54238;52.278;21.056;2023-03-05T15:28:41;12.60;;;4.60;;
67352;SDS011;54238;52.278;21.056;2023-03-05T15:31:10;12.00;;;5.10;;
67352;SDS011;54238;52.278;21.056;2023-03-05T15:33:40;9.70;;;4.20;;
67352;SDS011;54238;52.278;21.056;2023-03-05T15:36:09;10.80;;;5.10;;
67352;SDS011;54238;52.278;21.056;2023-03-05T15:38:37;12.10;;;5.00;;
67352;SDS011;54238;52.278;21.056;2023-03-05T15:41:07;13.30;;;5.70;;
67352;SDS011;54238;52.278;21.056;2023-03-05T15:43:39;11.00;;;5.30;;
67352;SDS011;54238;52.278;21.056;2023-03-05T15:48:36;7.30;;;4.40;;
67352;SDS011;54238;52.278;21.056;2023-03-05T15:51:06;26.30;;;7.10;;
67352;SDS011;54238;52.278;21.056;2023-03-05T15:53:35;33.20;;;8.80;;
67352;SDS011;54238;52.278;21.056;2023-03-05T15:56:02;28.30;;;6.70;;
67352;SDS011;54238;52.278;21.056;2023-03-05T15:58:32;28.60;;;7.10;;
67352;SDS011;54238;52.278;21.056;2023-03-05T16:00:59;62.80;;;15.10;;
67352;SDS011;54238;52.278;21.056;2023-03-05T16:03:26;65.00;;;18.90;;
67352;SDS011;54238;52.278;21.056;2023-03-05T16:05:55;40.10;;;13.00;;
67352;SDS011;54238;52.278;21.056;2023-03-05T16:08:26;79.20;;;21.60;;
67352;SDS011;54238;52.278;21.056;2023-03-05T16:10:56;35.70;;;10.70;;
67352;SDS011;54238;52.278;21.056;2023-03-05T16:13:26;19.90;;;7.40;;
67352;SDS011;54238;52.278;21.056;2023-03-05T16:15:56;19.00;;;8.30;;
67352;SDS011;54238;52.278;21.056;2023-03-05T16:18:29;13.50;;;6.30;;
67352;SDS011;54238;52.278;21.056;2023-03-05T16:20:58;18.20;;;7.20;;
67352;SDS011;54238;52.278;21.056;2023-03-05T16:23:28;16.80;;;7.60;;
67352;SDS011;54238;52.278;21.056;2023-03-05T16:25:55;16.70;;;8.30;;
67352;SDS011;54238;52.278;21.056;2023-03-05T16:28:22;12.20;;;6.30;;
67352;SDS011;54238;52.278;21.056;2023-03-05T16:30:56;16.60;;;7.10;;
67352;SDS011;54238;52.278;21.056;2023-03-05T16:33:31;13.50;;;6.40;;
67352;SDS011;54238;52.278;21.056;2023-03-05T16:38:37;28.30;;;10.00;;
67352;SDS011;54238;52.278;21.056;2023-03-05T16:41:08;22.80;;;9.00;;
67352;SDS011;54238;52.278;21.056;2023-03-05T16:43:36;30.20;;;10.20;;
67352;SDS011;54238;52.278;21.056;2023-03-05T16:46:03;24.60;;;9.50;;